Meteorología y climatología de Navarra
Datos de la estación - Meteo Navarra

Estación de Carcastillo (La Oliva) GN

Altitud 343 m.


Datos desde el 11/10/2018 hasta el 12/10/2018 en horario solar
Los datos son PROVISIONALES

Anterior Página 1 de 1 Siguiente Descargar: Formato para Excel 2000 o superior   Formato csv   Formato para OpenOffice Calc
Fecha Temperatura Humedad relativa Radiación global Insolación Precipitación Velocidad viento 10 m Velocidad viento 10 m Dirección viento 10 m
ºC % W/m² s l/m² m/s km/h º
11/10/2018 0:00 16.1 82 0.0 0 0.0 4.1 14.6 143
11/10/2018 0:10 16.1 83 0.0 0 0.0 4.5 16.0 147
11/10/2018 0:20 16.4 82 0.0 0 0.0 4.4 15.9 149
11/10/2018 0:30 16.6 82 0.0 0 0.0 4.3 15.4 145
11/10/2018 0:40 16.6 81 0.0 0 0.0 4.3 15.4 151
11/10/2018 0:50 16.7 81 0.0 0 0.0 3.9 14.0 148
11/10/2018 1:00 16.7 80 0.0 0 0.0 3.8 13.7 150
11/10/2018 1:10 16.7 80 0.0 0 0.0 3.6 13.0 144
11/10/2018 1:20 16.7 80 0.0 0 0.0 3.8 13.5 139
11/10/2018 1:30 16.6 80 0.0 0 0.0 4.0 14.4 138
11/10/2018 1:40 16.5 80 0.0 0 0.0 3.6 13.1 141
11/10/2018 1:50 16.4 81 0.0 0 0.0 3.4 12.3 138
11/10/2018 2:00 16.3 81 0.0 0 0.0 3.3 11.7 136
11/10/2018 2:10 16.4 80 0.0 0 0.0 3.6 13.0 145
11/10/2018 2:20 16.6 79 0.0 0 0.0 3.6 13.1 149
11/10/2018 2:30 16.6 79 0.0 0 0.0 3.2 11.5 151
11/10/2018 2:40 16.6 79 0.0 0 0.0 2.7 9.8 146
11/10/2018 2:50 16.3 80 0.0 0 0.0 2.8 10.0 133
11/10/2018 3:00 16.2 80 0.0 0 0.0 4.2 15.2 145
11/10/2018 3:10 16.4 78 0.0 0 0.0 4.4 15.7 150
11/10/2018 3:20 16.3 79 0.0 0 0.0 4.2 15.2 147
11/10/2018 3:30 16.2 80 0.0 0 0.0 3.6 12.9 146
11/10/2018 3:40 15.9 82 0.0 0 0.0 3.7 13.2 135
11/10/2018 3:50 15.7 83 0.0 0 0.0 4.0 14.2 139
11/10/2018 4:00 15.7 84 0.0 0 0.0 3.5 12.5 142
11/10/2018 4:10 15.7 84 0.0 0 0.0 3.8 13.6 145
11/10/2018 4:20 15.7 85 0.0 0 0.0 3.2 11.4 146
11/10/2018 4:30 15.7 85 0.0 0 0.0 3.4 12.3 149
11/10/2018 4:40 15.7 85 0.0 0 0.0 3.6 12.8 145
11/10/2018 4:50 15.6 85 0.0 0 0.0 2.8 10.2 152
11/10/2018 5:00 15.5 85 0.0 0 0.0 3.1 11.1 152
11/10/2018 5:10 15.7 85 0.0 0 0.0 3.4 12.1 145
11/10/2018 5:20 15.8 84 0.0 0 0.0 4.3 15.5 154
11/10/2018 5:30 15.9 83 0.0 0 0.0 3.8 13.8 161
11/10/2018 5:40 15.9 84 0.0 0 0.0 4.0 14.2 154
11/10/2018 5:50 15.8 84 0.0 0 0.0 4.2 15.0 149
11/10/2018 6:00 15.7 84 0.0 0 0.0 4.0 14.4 140
11/10/2018 6:10 15.5 85 0.0 0 0.0 4.3 15.3 142
11/10/2018 6:20 15.6 86 0.0 0 0.0 4.3 15.6 143
11/10/2018 6:30 15.7 85 14.4 48 0.0 4.9 17.7 147
11/10/2018 6:40 16.0 84 45.9 600 0.0 5.1 18.3 148
11/10/2018 6:50 16.3 83 67.3 600 0.0 5.0 18.0 150
11/10/2018 7:00 16.7 81 69.9 496 0.0 5.3 19.2 147
11/10/2018 7:10 16.9 80 48.2 0 0.0 4.8 17.4 148
11/10/2018 7:20 17.0 80 41.2 0 0.0 5.1 18.5 149
11/10/2018 7:30 17.0 79 48.6 0 0.0 4.9 17.5 151
11/10/2018 7:40 17.2 79 44.8 0 0.0 4.4 15.8 154
11/10/2018 7:50 17.2 79 46.9 0 0.0 4.6 16.6 149
11/10/2018 8:00 17.3 78 70.9 0 0.0 5.1 18.3 147
11/10/2018 8:10 17.4 78 117.2 46 0.0 4.4 15.7 147
11/10/2018 8:20 17.6 77 162.3 106 0.0 5.2 18.6 142
11/10/2018 8:30 17.8 76 182.9 116 0.0 4.4 15.7 138
11/10/2018 8:40 18.2 76 279.3 512 0.0 3.5 12.5 138
11/10/2018 8:50 18.9 73 330.1 600 0.0 4.3 15.6 135
11/10/2018 9:00 19.4 70 260.5 318 0.0 5.0 18.0 143
11/10/2018 9:10 19.5 69 373.3 522 0.0 4.9 17.5 141
11/10/2018 9:20 20.3 67 452.9 570 0.0 5.3 19.0 132
11/10/2018 9:30 20.6 64 520.7 600 0.0 5.6 20.2 138
11/10/2018 9:40 21.0 62 434.3 454 0.0 6.2 22.1 142
11/10/2018 9:50 21.0 61 513.1 560 0.0 6.8 24.3 143
11/10/2018 10:00 21.4 61 588.2 472 0.0 5.6 20.3 136
11/10/2018 10:10 21.7 60 442.7 422 0.0 5.8 20.8 148
11/10/2018 10:20 21.3 61 242.7 0 0.0 6.6 23.6 144
11/10/2018 10:30 21.0 61 173.1 0 0.0 4.8 17.1 151
11/10/2018 10:40 21.2 61 295.1 76 0.0 4.7 16.8 147
11/10/2018 10:50 21.4 60 268.4 76 0.0 5.6 20.2 147
11/10/2018 11:00 21.5 60 284.1 124 0.0 5.1 18.4 143
11/10/2018 11:10 21.5 60 105.3 0 0.0 4.6 16.6 144
11/10/2018 11:20 21.2 61 64.1 0 0.0 4.4 15.7 153
11/10/2018 11:30 20.9 62 37.0 0 0.0 3.8 13.8 155
11/10/2018 11:40 20.6 64 66.0 0 0.0 3.8 13.5 148
11/10/2018 11:50 20.4 69 116.6 0 0.1 3.0 10.9 151
11/10/2018 12:00 20.0 73 198.6 0 0.0 3.5 12.5 147
11/10/2018 12:10 19.9 75 229.7 0 0.0 2.4 8.6 132
11/10/2018 12:20 20.0 74 239.5 0 0.0 2.9 10.3 143
11/10/2018 12:30 20.4 70 172.1 0 0.0 3.8 13.5 150
11/10/2018 12:40 20.7 67 130.7 0 0.0 4.5 16.3 153
11/10/2018 12:50 20.8 67 179.9 0 0.0 3.7 13.4 152
11/10/2018 13:00 21.1 66 230.1 0 0.0 3.7 13.4 152
11/10/2018 13:10 21.3 65 206.7 0 0.0 3.7 13.4 143
11/10/2018 13:20 21.4 65 190.6 0 0.0 3.3 11.7 146
11/10/2018 13:30 21.7 64 260.6 190 0.0 3.2 11.4 143
11/10/2018 13:40 22.1 62 365.5 598 0.0 4.1 14.8 142
11/10/2018 13:50 22.4 60 256.5 206 0.0 4.7 16.7 142
11/10/2018 14:00 22.2 60 177.8 0 0.0 4.7 16.7 155
11/10/2018 14:10 22.2 60 216.9 40 0.0 4.4 15.9 151
11/10/2018 14:20 22.4 59 216.7 14 0.0 4.2 15.1 152
11/10/2018 14:30 22.6 59 140.1 0 0.0 4.3 15.6 152
11/10/2018 14:40 22.5 58 246.3 310 0.0 4.0 14.3 152
11/10/2018 14:50 23.0 57 182.0 148 0.0 3.9 14.0 157
11/10/2018 15:00 22.7 58 164.8 22 0.0 3.9 13.9 158
11/10/2018 15:10 22.8 58 178.0 0 0.0 3.9 13.9 145
11/10/2018 15:20 22.9 58 108.0 0 0.0 4.4 15.8 140
11/10/2018 15:30 22.8 58 100.9 0 0.0 3.8 13.6 151
11/10/2018 15:40 22.9 58 104.4 0 0.0 4.3 15.4 144
11/10/2018 15:50 22.9 58 95.4 0 0.0 2.9 10.4 156
11/10/2018 16:00 22.9 57 46.7 0 0.0 3.8 13.8 155
11/10/2018 16:10 22.9 58 54.5 0 0.0 3.5 12.5 151
11/10/2018 16:20 22.8 59 31.4 0 0.0 2.9 10.4 145
11/10/2018 16:30 22.5 61 31.7 0 0.0 3.4 12.1 143
11/10/2018 16:40 22.5 61 53.8 0 0.0 3.1 11.3 144
11/10/2018 16:50 22.3 61 40.1 0 0.0 3.4 12.1 147
11/10/2018 17:00 22.2 62 24.0 0 0.0 2.9 10.6 148
11/10/2018 17:10 21.9 63 0.8 0 0.0 2.7 9.6 146
11/10/2018 17:20 21.7 64 0.0 0 0.0 2.5 9.1 138
11/10/2018 17:30 21.5 65 0.0 0 0.0 2.2 7.9 142
11/10/2018 17:40 21.3 65 0.0 0 0.0 2.4 8.5 136
11/10/2018 17:50 21.1 65 0.0 0 0.0 2.5 8.9 136
11/10/2018 18:00 21.0 65 0.0 0 0.0 2.6 9.3 140
11/10/2018 18:10 21.1 65 0.0 0 0.0 3.5 12.5 137
11/10/2018 18:20 21.3 64 0.0 0 0.0 3.3 11.9 132
11/10/2018 18:30 21.0 65 0.0 0 0.0 2.2 8.0 146
11/10/2018 18:40 21.0 65 0.0 0 0.0 3.5 12.5 146
11/10/2018 18:50 21.0 65 0.0 0 0.0 3.0 10.8 150
11/10/2018 19:00 21.1 65 0.0 0 0.0 2.8 10.0 148
11/10/2018 19:10 21.0 66 0.0 0 0.0 2.8 10.0 154
11/10/2018 19:20 21.0 67 0.0 0 0.0 2.2 7.7 149
11/10/2018 19:30 20.8 67 0.0 0 0.0 3.1 11.0 137
11/10/2018 19:40 20.9 66 0.0 0 0.0 3.8 13.6 139
11/10/2018 19:50 21.0 66 0.0 0 0.0 3.0 10.6 143
11/10/2018 20:00 20.9 65 0.0 0 0.0 3.7 13.4 142
11/10/2018 20:10 21.0 65 0.0 0 0.0 4.3 15.3 141
11/10/2018 20:20 21.0 64 0.0 0 0.0 3.6 13.0 150
11/10/2018 20:30 20.9 65 0.0 0 0.0 3.4 12.2 154
11/10/2018 20:40 20.8 65 0.0 0 0.0 3.6 13.1 148
11/10/2018 20:50 20.9 64 0.0 0 0.0 3.9 14.2 151
11/10/2018 21:00 20.8 64 0.0 0 0.0 3.9 13.9 147
11/10/2018 21:10 20.6 65 0.0 0 0.0 3.8 13.6 144
11/10/2018 21:20 20.5 65 0.0 0 0.0 3.4 12.1 150
11/10/2018 21:30 20.5 65 0.0 0 0.0 3.7 13.4 145
11/10/2018 21:40 20.4 65 0.0 0 0.0 3.4 12.4 147
11/10/2018 21:50 20.4 65 0.0 0 0.0 3.6 13.0 146
11/10/2018 22:00 20.3 66 0.0 0 0.0 3.5 12.4 149
11/10/2018 22:10 20.4 66 0.0 0 0.0 3.4 12.3 149
11/10/2018 22:20 20.4 66 0.0 0 0.0 2.6 9.3 171
11/10/2018 22:30 20.4 67 0.0 0 0.0 2.8 10.0 162
11/10/2018 22:40 20.3 67 0.0 0 0.0 3.2 11.6 159
11/10/2018 22:50 20.2 67 0.0 0 0.0 3.2 11.3 161
11/10/2018 23:00 20.3 67 0.0 0 0.0 3.4 12.4 161
11/10/2018 23:10 20.3 67 0.0 0 0.0 3.7 13.4 157
11/10/2018 23:20 20.3 68 0.0 0 0.0 3.5 12.7 160
11/10/2018 23:30 20.3 68 0.0 0 0.0 3.3 11.8 164
11/10/2018 23:40 20.2 68 0.0 0 0.0 3.1 11.0 174
11/10/2018 23:50 20.0 69 0.0 0 0.0 2.4 8.5 169
Anterior Página 1 de 1 Siguiente

NOTA: Tipo de datos según el color:
   - Valores diarios o 10 minutos correctos
   - Valores diarios calculados a partir de un número de datos 10 minutos menor que 144 y mayor que 120, o de un número de datos semihorarios menor que 48 y mayor que 40 (caso de las estaciones de Riegos de Navarra y del MARM)
   - Valores diez minutos estimados


Contacto        Enlaces        Aviso legal